Time,TemperatureF,DewpointF,PressureIn,WindDirection,WindDirectionDegrees,WindSpeedMPH,WindSpeedGustMPH,Humidity,HourlyPrecipIn,Conditions,Clouds,dailyrainin,SolarRadiationWatts/m^2,SoftwareType,DateUTC
2013-05-17 07:49:00,64.1,61.4,30.11,West,269,0.0,0.0,91,0.00,,,0.00,111,Wunderground v.1.15,2013-05-17 11:49:00,
2013-05-17 07:54:00,64.4,62.0,30.11,West,269,0.0,0.0,92,0.00,,,0.00,113,Wunderground v.1.15,2013-05-17 11:54:00,
2013-05-17 07:59:00,64.9,61.9,30.12,West,269,0.0,0.0,90,0.00,,,0.00,123,Wunderground v.1.15,2013-05-17 11:59:00,
2013-05-17 08:04:00,65.7,61.7,30.12,West,269,0.0,0.0,87,0.00,,,0.00,134,Wunderground v.1.15,2013-05-17 12:04:00,
2013-05-17 08:09:00,65.8,62.5,30.13,West,269,0.0,0.0,89,0.00,,,0.00,149,Wunderground v.1.15,2013-05-17 12:09:00,
2013-05-17 08:14:00,65.9,62.6,30.13,West,269,0.0,0.0,89,0.00,,,0.00,158,Wunderground v.1.15,2013-05-17 12:14:00,
2013-05-17 08:19:00,66.2,62.2,30.13,West,270,0.0,0.0,87,0.00,,,0.00,167,Wunderground v.1.15,2013-05-17 12:19:00,
2013-05-17 08:24:00,66.5,62.8,30.13,West,270,0.0,0.0,88,0.00,,,0.00,178,Wunderground v.1.15,2013-05-17 12:24:00,
2013-05-17 08:29:00,66.6,63.3,30.13,West,270,0.0,0.0,89,0.00,,,0.00,190,Wunderground v.1.15,2013-05-17 12:29:00,
2013-05-17 08:34:00,66.6,62.9,30.13,West,270,0.0,0.0,88,0.00,,,0.00,197,Wunderground v.1.15,2013-05-17 12:34:00,
2013-05-17 08:39:00,67.0,62.3,30.13,West,270,0.0,0.0,85,0.00,,,0.00,225,Wunderground v.1.15,2013-05-17 12:39:00,
2013-05-17 08:44:00,67.4,62.7,30.13,West,270,0.0,0.0,85,0.00,,,0.00,260,Wunderground v.1.15,2013-05-17 12:44:00,
2013-05-17 08:49:00,67.6,63.3,30.13,West,270,0.0,0.0,86,0.00,,,0.00,241,Wunderground v.1.15,2013-05-17 12:49:00,
2013-05-17 08:54:00,68.0,63.0,30.13,West,270,0.0,0.0,84,0.00,,,0.00,213,Wunderground v.1.15,2013-05-17 12:54:00,
2013-05-17 08:59:00,68.2,62.5,30.13,West,270,0.0,0.0,82,0.00,,,0.00,202,Wunderground v.1.15,2013-05-17 12:59:00,
2013-05-17 09:33:00,72.2,63.1,30.14,NNE,12,0.0,1.0,73,0.00,,,0.00,638,Wunderground v.1.15,2013-05-17 13:33:00,
2013-05-17 09:38:00,72.8,62.8,30.14,NNE,13,2.0,3.0,71,0.00,,,0.00,647,Wunderground v.1.15,2013-05-17 13:38:00,
2013-05-17 09:41:00,73.2,63.6,30.14,NNE,26,1.0,3.0,72,0.00,,,0.00,656,Wunderground v.1.15,2013-05-17 13:41:00,
2013-05-17 09:47:00,73.7,62.1,30.14,NE,48,0.0,4.0,67,0.00,,,0.00,668,Wunderground v.1.15,2013-05-17 13:47:00,
2013-05-17 09:52:00,74.5,62.4,30.14,NE,34,3.0,4.0,66,0.00,,,0.00,679,Wunderground v.1.15,2013-05-17 13:52:00,
2013-05-17 09:57:00,74.5,62.4,30.14,NNE,12,0.0,4.0,66,0.00,,,0.00,696,Wunderground v.1.15,2013-05-17 13:57:00,
2013-05-17 09:59:00,74.9,63.6,30.13,NW,314,3.0,4.0,68,0.00,,,0.00,700,Wunderground v.1.15,2013-05-17 13:59:00,
2013-05-17 10:04:00,75.9,62.4,30.14,North,5,1.0,5.0,63,0.00,,,0.00,712,Wunderground v.1.15,2013-05-17 14:04:00,
2013-05-17 10:08:00,76.0,63.4,30.14,North,9,0.0,5.0,65,0.00,,,0.00,724,Wunderground v.1.15,2013-05-17 14:08:00,
2013-05-17 10:13:00,76.1,61.2,30.14,NNE,15,0.0,6.0,60,0.00,,,0.00,735,Wunderground v.1.15,2013-05-17 14:13:00,
2013-05-17 10:18:00,76.4,64.6,30.14,NNE,15,1.0,6.0,67,0.00,,,0.00,747,Wunderground v.1.15,2013-05-17 14:18:00,
2013-05-17 10:23:00,76.7,60.3,30.14,NNE,22,1.0,4.0,57,0.00,,,0.00,758,Wunderground v.1.15,2013-05-17 14:23:00,
2013-05-17 10:28:00,77.2,61.3,30.14,ENE,74,1.0,7.0,58,0.00,,,0.00,768,Wunderground v.1.15,2013-05-17 14:28:00,
2013-05-17 10:33:00,77.3,61.4,30.14,ESE,120,3.0,4.0,58,0.00,,,0.00,775,Wunderground v.1.15,2013-05-17 14:33:00,
2013-05-17 10:38:00,77.9,61.4,30.14,NE,42,3.0,5.0,57,0.00,,,0.00,789,Wunderground v.1.15,2013-05-17 14:38:00,
2013-05-17 10:43:00,77.4,61.0,30.14,SE,131,4.0,6.0,57,0.00,,,0.00,802,Wunderground v.1.15,2013-05-17 14:43:00,
2013-05-17 10:48:00,77.4,61.0,30.14,SE,132,4.0,6.0,57,0.00,,,0.00,810,Wunderground v.1.15,2013-05-17 14:48:00,
2013-05-17 10:53:00,77.5,62.0,30.14,SE,132,6.0,6.0,59,0.00,,,0.00,817,Wunderground v.1.15,2013-05-17 14:53:00,
2013-05-17 10:58:00,78.0,61.5,30.14,ESE,121,4.0,8.0,57,0.00,,,0.00,830,Wunderground v.1.15,2013-05-17 14:58:00,
2013-05-17 11:03:00,78.0,61.0,30.14,SE,145,2.0,6.0,56,0.00,,,0.00,835,Wunderground v.1.15,2013-05-17 15:03:00,
2013-05-17 11:08:00,78.4,61.4,30.14,East,81,0.0,7.0,56,0.00,,,0.00,846,Wunderground v.1.15,2013-05-17 15:08:00,
2013-05-17 11:13:00,79.0,61.5,30.14,ENE,61,3.0,8.0,55,0.00,,,0.00,854,Wunderground v.1.15,2013-05-17 15:13:00,
2013-05-17 11:18:00,79.2,60.1,30.14,East,93,6.0,8.0,52,0.00,,,0.00,863,Wunderground v.1.15,2013-05-17 15:18:00,
2013-05-17 11:23:00,79.1,60.0,30.14,SE,132,2.0,4.0,52,0.00,,,0.00,870,Wunderground v.1.15,2013-05-17 15:23:00,
2013-05-17 11:28:00,79.4,60.8,30.14,SE,126,2.0,5.0,53,0.00,,,0.00,870,Wunderground v.1.15,2013-05-17 15:28:00,
2013-05-17 11:33:00,80.1,59.8,30.14,SSE,157,1.0,7.0,50,0.00,,,0.00,881,Wunderground v.1.15,2013-05-17 15:33:00,
2013-05-17 11:38:00,80.0,61.3,30.14,ESE,115,5.0,8.0,53,0.00,,,0.00,882,Wunderground v.1.15,2013-05-17 15:38:00,
2013-05-17 11:43:00,80.0,61.3,30.14,NE,40,5.0,7.0,53,0.00,,,0.00,895,Wunderground v.1.15,2013-05-17 15:43:00,
2013-05-17 11:48:00,80.5,60.7,30.14,East,85,2.0,7.0,51,0.00,,,0.00,900,Wunderground v.1.15,2013-05-17 15:48:00,
2013-05-17 11:53:00,80.6,60.8,30.14,ENE,63,1.0,5.0,51,0.00,,,0.00,896,Wunderground v.1.15,2013-05-17 15:53:00,
2013-05-17 11:58:00,80.8,61.5,30.14,SSE,160,1.0,7.0,52,0.00,,,0.00,909,Wunderground v.1.15,2013-05-17 15:58:00,
2013-05-17 12:03:00,81.2,61.4,30.14,South,175,0.0,3.0,51,0.00,,,0.00,916,Wunderground v.1.15,2013-05-17 16:03:00,
2013-05-17 12:08:00,81.8,61.3,30.13,South,185,2.0,7.0,50,0.00,,,0.00,921,Wunderground v.1.15,2013-05-17 16:08:00,
2013-05-17 12:13:00,81.4,59.2,30.13,SSE,159,1.0,5.0,47,0.00,,,0.00,930,Wunderground v.1.15,2013-05-17 16:13:00,
2013-05-17 12:18:00,81.3,60.9,30.13,SSE,167,2.0,6.0,50,0.00,,,0.00,918,Wunderground v.1.15,2013-05-17 16:18:00,
2013-05-17 12:23:00,81.8,60.2,30.13,South,179,5.0,8.0,48,0.00,,,0.00,921,Wunderground v.1.15,2013-05-17 16:23:00,
2013-05-17 12:28:00,81.6,59.4,30.13,South,190,2.0,8.0,47,0.00,,,0.00,930,Wunderground v.1.15,2013-05-17 16:28:00,
2013-05-17 12:33:00,82.4,60.1,30.14,South,180,3.0,6.0,47,0.00,,,0.00,937,Wunderground v.1.15,2013-05-17 16:33:00,
2013-05-17 12:38:00,82.4,60.7,30.13,SSW,205,4.0,6.0,48,0.00,,,0.00,942,Wunderground v.1.15,2013-05-17 16:38:00,
2013-05-17 12:43:00,81.6,60.6,30.13,SE,141,4.0,4.0,49,0.00,,,0.00,935,Wunderground v.1.15,2013-05-17 16:43:00,
2013-05-17 12:48:00,82.0,61.5,30.13,ESE,105,3.0,7.0,50,0.00,,,0.00,937,Wunderground v.1.15,2013-05-17 16:48:00,
2013-05-17 12:53:00,82.4,61.3,30.13,SE,127,4.0,8.0,49,0.00,,,0.00,930,Wunderground v.1.15,2013-05-17 16:53:00,
2013-05-17 12:58:00,82.6,61.5,30.12,ESE,107,8.0,10.0,49,0.00,,,0.00,935,Wunderground v.1.15,2013-05-17 16:58:00,
2013-05-17 13:03:00,82.9,61.8,30.13,SSE,148,1.0,7.0,49,0.00,,,0.00,814,Wunderground v.1.15,2013-05-17 17:03:00,
2013-05-17 13:08:00,82.7,63.8,30.12,SSW,198,4.0,8.0,53,0.00,,,0.00,933,Wunderground v.1.15,2013-05-17 17:08:00,
2013-05-17 13:13:00,82.7,61.6,30.12,SSE,159,8.0,9.0,49,0.00,,,0.00,925,Wunderground v.1.15,2013-05-17 17:13:00,
2013-05-17 13:18:00,82.8,60.5,30.12,ESE,118,4.0,9.0,47,0.00,,,0.00,921,Wunderground v.1.15,2013-05-17 17:18:00,
2013-05-17 13:23:00,83.6,62.4,30.13,SSW,194,2.0,10.0,49,0.00,,,0.00,921,Wunderground v.1.15,2013-05-17 17:23:00,
2013-05-17 13:28:00,83.0,59.5,30.12,SSW,194,4.0,10.0,45,0.00,,,0.00,919,Wunderground v.1.15,2013-05-17 17:28:00,
2013-05-17 13:33:00,82.9,62.4,30.12,SSE,155,5.0,5.0,50,0.00,,,0.00,918,Wunderground v.1.15,2013-05-17 17:33:00,
2013-05-17 13:38:00,83.5,61.7,30.12,SSW,203,7.0,7.0,48,0.00,,,0.00,911,Wunderground v.1.15,2013-05-17 17:38:00,
2013-05-17 13:43:00,82.6,60.3,30.12,SSW,200,5.0,9.0,47,0.00,,,0.00,909,Wunderground v.1.15,2013-05-17 17:43:00,
2013-05-17 13:48:00,83.2,60.3,30.12,South,188,4.0,9.0,46,0.00,,,0.00,909,Wunderground v.1.15,2013-05-17 17:48:00,
2013-05-17 13:53:00,83.6,60.6,30.13,South,178,2.0,7.0,46,0.00,,,0.00,904,Wunderground v.1.15,2013-05-17 17:53:00,
2013-05-17 13:58:00,83.8,63.2,30.12,South,188,2.0,7.0,50,0.00,,,0.00,902,Wunderground v.1.15,2013-05-17 17:58:00,
2013-05-17 14:03:00,83.7,63.7,30.12,West,277,1.0,6.0,51,0.00,,,0.00,893,Wunderground v.1.15,2013-05-17 18:03:00,
2013-05-17 14:08:00,83.9,62.7,30.13,West,268,2.0,7.0,49,0.00,,,0.00,889,Wunderground v.1.15,2013-05-17 18:08:00,
2013-05-17 14:13:00,83.7,62.5,30.12,West,266,5.0,5.0,49,0.00,,,0.00,879,Wunderground v.1.15,2013-05-17 18:13:00,
2013-05-17 14:18:00,83.3,60.4,30.13,WSW,240,3.0,6.0,46,0.00,,,0.00,867,Wunderground v.1.15,2013-05-17 18:18:00,
2013-05-17 14:23:00,83.9,61.5,30.12,SSE,148,2.0,6.0,47,0.00,,,0.00,860,Wunderground v.1.15,2013-05-17 18:23:00,
2013-05-17 14:28:00,84.1,63.5,30.12,West,270,1.0,6.0,50,0.00,,,0.00,858,Wunderground v.1.15,2013-05-17 18:28:00,
2013-05-17 14:33:00,83.9,60.3,30.12,South,177,6.0,7.0,45,0.00,,,0.00,846,Wunderground v.1.15,2013-05-17 18:33:00,
2013-05-17 14:38:00,84.1,61.1,30.12,SSW,192,6.0,7.0,46,0.00,,,0.00,840,Wunderground v.1.15,2013-05-17 18:38:00,
2013-05-17 14:43:00,84.2,62.4,30.12,SSW,212,3.0,7.0,48,0.00,,,0.00,826,Wunderground v.1.15,2013-05-17 18:43:00,
2013-05-17 14:48:00,84.2,61.2,30.11,South,183,3.0,7.0,46,0.00,,,0.00,817,Wunderground v.1.15,2013-05-17 18:48:00,
2013-05-17 14:53:00,84.0,62.2,30.11,SE,145,2.0,4.0,48,0.00,,,0.00,816,Wunderground v.1.15,2013-05-17 18:53:00,
2013-05-17 14:58:00,83.9,60.3,30.11,West,276,2.0,6.0,45,0.00,,,0.00,802,Wunderground v.1.15,2013-05-17 18:58:00,
2013-05-17 15:04:00,84.1,62.9,30.11,West,260,3.0,5.0,49,0.00,,,0.00,793,Wunderground v.1.15,2013-05-17 19:04:00,
2013-05-17 15:09:00,84.2,62.4,30.11,SSE,165,2.0,5.0,48,0.00,,,0.00,780,Wunderground v.1.15,2013-05-17 19:09:00,
2013-05-17 15:14:00,83.8,59.6,30.11,NE,38,0.0,7.0,44,0.00,,,0.00,772,Wunderground v.1.15,2013-05-17 19:14:00,
2013-05-17 15:19:00,83.6,59.4,30.11,ENE,57,2.0,7.0,44,0.00,,,0.00,765,Wunderground v.1.15,2013-05-17 19:19:00,
2013-05-17 15:24:00,84.2,60.6,30.11,ESE,117,3.0,5.0,45,0.00,,,0.00,749,Wunderground v.1.15,2013-05-17 19:24:00,
2013-05-17 15:29:00,84.3,60.0,30.11,SE,140,3.0,7.0,44,0.00,,,0.00,731,Wunderground v.1.15,2013-05-17 19:29:00,
2013-05-17 15:34:00,84.7,60.4,30.11,South,170,2.0,7.0,44,0.00,,,0.00,724,Wunderground v.1.15,2013-05-17 19:34:00,
2013-05-17 15:39:00,85.0,60.6,30.10,SSE,159,2.0,7.0,44,0.00,,,0.00,710,Wunderground v.1.15,2013-05-17 19:39:00,
2013-05-17 15:44:00,84.8,61.1,30.10,SW,221,5.0,7.0,45,0.00,,,0.00,700,Wunderground v.1.15,2013-05-17 19:44:00,
2013-05-17 15:49:00,84.7,61.6,30.10,SSW,205,4.0,7.0,46,0.00,,,0.00,687,Wunderground v.1.15,2013-05-17 19:49:00,
2013-05-17 15:54:00,84.3,60.0,30.10,West,265,0.0,4.0,44,0.00,,,0.00,671,Wunderground v.1.15,2013-05-17 19:54:00,
2013-05-17 15:59:00,84.8,61.1,30.10,WSW,248,0.0,4.0,45,0.00,,,0.00,652,Wunderground v.1.15,2013-05-17 19:59:00,
2013-05-17 16:04:00,84.8,61.7,30.10,SSW,196,2.0,5.0,46,0.00,,,0.00,635,Wunderground v.1.15,2013-05-17 20:04:00,
2013-05-17 16:09:00,84.8,61.1,30.10,South,181,1.0,6.0,45,0.00,,,0.00,626,Wunderground v.1.15,2013-05-17 20:09:00,
2013-05-17 16:14:00,84.7,61.0,30.10,SE,137,3.0,7.0,45,0.00,,,0.00,621,Wunderground v.1.15,2013-05-17 20:14:00,
2013-05-17 16:19:00,84.8,61.7,30.10,South,169,3.0,8.0,46,0.00,,,0.00,589,Wunderground v.1.15,2013-05-17 20:19:00,
2013-05-17 16:24:00,84.7,62.2,30.09,SSW,209,4.0,5.0,47,0.00,,,0.00,566,Wunderground v.1.15,2013-05-17 20:24:00,
2013-05-17 16:29:00,84.7,62.2,30.09,South,175,1.0,5.0,47,0.00,,,0.00,557,Wunderground v.1.15,2013-05-17 20:29:00,
2013-05-17 16:34:00,84.3,60.6,30.10,SSE,165,0.0,5.0,45,0.00,,,0.00,557,Wunderground v.1.15,2013-05-17 20:34:00,
2013-05-17 16:39:00,84.7,61.0,30.09,SE,140,1.0,6.0,45,0.00,,,0.00,548,Wunderground v.1.15,2013-05-17 20:39:00,
2013-05-17 16:44:00,85.1,60.7,30.10,ESE,119,3.0,4.0,44,0.00,,,0.00,534,Wunderground v.1.15,2013-05-17 20:44:00,
2013-05-17 16:49:00,85.1,62.0,30.09,SSW,200,0.0,4.0,46,0.00,,,0.00,504,Wunderground v.1.15,2013-05-17 20:49:00,
2013-05-17 16:54:00,85.4,61.0,30.09,ESE,123,3.0,4.0,44,0.00,,,0.00,473,Wunderground v.1.15,2013-05-17 20:54:00,
2013-05-17 16:59:00,84.8,60.5,30.09,SE,146,1.0,4.0,44,0.00,,,0.00,462,Wunderground v.1.15,2013-05-17 20:59:00,
2013-05-17 17:04:00,84.7,62.8,30.09,SSW,206,1.0,3.0,48,0.00,,,0.00,443,Wunderground v.1.15,2013-05-17 21:04:00,
2013-05-17 17:09:00,84.6,61.5,30.10,South,186,3.0,5.0,46,0.00,,,0.00,446,Wunderground v.1.15,2013-05-17 21:09:00,
2013-05-17 17:15:00,84.3,61.3,30.09,SSW,204,2.0,5.0,46,0.00,,,0.00,429,Wunderground v.1.15,2013-05-17 21:15:00,
2013-05-17 17:20:00,84.6,60.9,30.09,South,185,0.0,2.0,45,0.00,,,0.00,415,Wunderground v.1.15,2013-05-17 21:20:00,
2013-05-17 17:25:00,84.2,62.4,30.09,SSW,211,2.0,2.0,48,0.00,,,0.00,374,Wunderground v.1.15,2013-05-17 21:25:00,
2013-05-17 17:30:00,85.0,61.9,30.09,South,175,1.0,1.0,46,0.00,,,0.00,359,Wunderground v.1.15,2013-05-17 21:30:00,
2013-05-17 17:35:00,84.7,61.0,30.09,SE,145,0.0,3.0,45,0.00,,,0.00,381,Wunderground v.1.15,2013-05-17 21:35:00,
2013-05-17 17:40:00,84.9,61.8,30.09,SSE,155,1.0,1.0,46,0.00,,,0.00,359,Wunderground v.1.15,2013-05-17 21:40:00,
2013-05-17 17:45:00,84.8,61.7,30.09,SSE,165,1.0,4.0,46,0.00,,,0.00,332,Wunderground v.1.15,2013-05-17 21:45:00,
2013-05-17 17:50:00,84.9,60.6,30.09,SSE,148,1.0,2.0,44,0.00,,,0.00,327,Wunderground v.1.15,2013-05-17 21:50:00,
2013-05-17 17:55:00,84.3,60.6,30.09,South,174,2.0,3.0,45,0.00,,,0.00,299,Wunderground v.1.15,2013-05-17 21:55:00,
2013-05-17 18:00:00,84.6,62.1,30.09,SSE,162,1.0,2.0,47,0.00,,,0.00,295,Wunderground v.1.15,2013-05-17 22:00:00,
2013-05-17 18:05:00,84.5,62.1,30.09,SSE,153,1.0,4.0,47,0.00,,,0.00,292,Wunderground v.1.15,2013-05-17 22:05:00,
2013-05-17 18:10:00,84.4,62.0,30.09,South,182,2.0,2.0,47,0.00,,,0.00,279,Wunderground v.1.15,2013-05-17 22:10:00,
2013-05-17 18:15:00,84.0,62.8,30.09,South,184,0.0,3.0,49,0.00,,,0.00,271,Wunderground v.1.15,2013-05-17 22:15:00,
2013-05-17 18:20:00,83.9,62.7,30.09,South,184,1.0,2.0,49,0.00,,,0.00,253,Wunderground v.1.15,2013-05-17 22:20:00,
2013-05-17 18:25:00,84.1,62.9,30.09,South,184,0.0,2.0,49,0.00,,,0.00,239,Wunderground v.1.15,2013-05-17 22:25:00,
2013-05-17 18:30:00,84.2,62.4,30.09,SSE,161,2.0,2.0,48,0.00,,,0.00,216,Wunderground v.1.15,2013-05-17 22:30:00,
2013-05-17 18:35:00,84.0,66.1,30.09,SSE,162,2.0,2.0,55,0.00,,,0.00,202,Wunderground v.1.15,2013-05-17 22:35:00,
2013-05-17 18:40:00,83.4,63.4,30.09,SSW,193,1.0,2.0,51,0.00,,,0.00,183,Wunderground v.1.15,2013-05-17 22:40:00,
2013-05-17 18:46:00,83.8,62.6,30.08,SSE,151,0.0,3.0,49,0.00,,,0.00,162,Wunderground v.1.15,2013-05-17 22:46:00,
2013-05-17 18:51:00,83.9,63.3,30.09,South,175,1.0,1.0,50,0.00,,,0.00,93,Wunderground v.1.15,2013-05-17 22:51:00,
2013-05-17 18:56:00,83.0,63.6,30.09,South,175,0.0,2.0,52,0.00,,,0.00,86,Wunderground v.1.15,2013-05-17 22:56:00,
2013-05-17 19:01:00,81.8,64.6,30.09,South,175,0.0,0.0,56,0.00,,,0.00,65,Wunderground v.1.15,2013-05-17 23:01:00,
2013-05-17 19:06:00,81.1,64.9,30.09,South,175,0.0,1.0,58,0.00,,,0.00,62,Wunderground v.1.15,2013-05-17 23:06:00,
2013-05-17 19:11:00,80.4,64.3,30.09,South,175,0.0,0.0,58,0.00,,,0.00,49,Wunderground v.1.15,2013-05-17 23:11:00,
2013-05-17 19:16:00,80.2,63.6,30.09,South,175,0.0,1.0,57,0.00,,,0.00,42,Wunderground v.1.15,2013-05-17 23:16:00,
2013-05-17 19:21:00,80.0,63.4,30.09,South,175,0.0,0.0,57,0.00,,,0.00,32,Wunderground v.1.15,2013-05-17 23:21:00,
2013-05-17 19:26:00,78.1,64.9,30.09,South,175,0.0,1.0,64,0.00,,,0.00,32,Wunderground v.1.15,2013-05-17 23:26:00,
2013-05-17 19:31:00,77.4,64.7,30.09,South,175,0.0,1.0,65,0.00,,,0.00,32,Wunderground v.1.15,2013-05-17 23:31:00,
2013-05-17 19:36:00,76.7,67.0,30.09,South,175,0.0,1.0,72,0.00,,,0.00,33,Wunderground v.1.15,2013-05-17 23:36:00,
2013-05-17 19:41:00,76.1,68.0,30.09,South,175,0.0,0.0,76,0.00,,,0.00,32,Wunderground v.1.15,2013-05-17 23:41:00,
2013-05-17 19:46:00,75.9,68.2,30.10,South,175,0.0,0.0,77,0.00,,,0.00,26,Wunderground v.1.15,2013-05-17 23:46:00,
2013-05-17 19:51:00,75.7,66.8,30.10,South,175,0.0,0.0,74,0.00,,,0.00,19,Wunderground v.1.15,2013-05-17 23:51:00,
2013-05-17 19:56:00,75.8,66.5,30.10,South,175,0.0,0.0,73,0.00,,,0.00,14,Wunderground v.1.15,2013-05-17 23:56:00,
2013-05-17 20:01:00,75.5,67.0,30.09,South,175,0.0,0.0,75,0.00,,,0.00,9,Wunderground v.1.15,2013-05-18 00:01:00,
2013-05-17 20:06:00,75.0,67.7,30.09,South,175,0.0,0.0,78,0.00,,,0.00,5,Wunderground v.1.15,2013-05-18 00:06:00,
2013-05-17 20:11:00,74.0,67.4,30.09,South,175,0.0,0.0,80,0.00,,,0.00,0,Wunderground v.1.15,2013-05-18 00:11:00,
2013-05-17 20:16:00,74.2,67.3,30.10,South,175,0.0,1.0,79,0.00,,,0.00,0,Wunderground v.1.15,2013-05-18 00:16:00,
2013-05-17 20:21:00,73.7,67.1,30.10,South,175,0.0,0.0,80,0.00,,,0.00,0,Wunderground v.1.15,2013-05-18 00:21:00,
2013-05-17 20:26:00,73.3,67.5,30.10,South,175,0.0,0.0,82,0.00,,,0.00,0,Wunderground v.1.15,2013-05-18 00:26:00,
2013-05-17 20:31:00,72.5,67.7,30.10,South,175,0.0,0.0,85,0.00,,,0.00,0,Wunderground v.1.15,2013-05-18 00:31:00,
2013-05-17 20:36:00,72.3,67.2,30.10,South,175,0.0,1.0,84,0.00,,,0.00,0,Wunderground v.1.15,2013-05-18 00:36:00,
2013-05-17 20:42:00,71.7,67.3,30.10,South,175,0.0,0.0,86,0.00,,,0.00,0,Wunderground v.1.15,2013-05-18 00:42:00,
2013-05-17 20:47:00,71.2,67.5,30.11,South,175,0.0,0.0,88,0.00,,,0.00,0,Wunderground v.1.15,2013-05-18 00:47:00,
2013-05-17 20:52:00,70.7,67.0,30.11,South,175,0.0,0.0,88,0.00,,,0.00,0,Wunderground v.1.15,2013-05-18 00:52:00,
2013-05-17 20:57:00,70.3,66.6,30.11,South,175,0.0,0.0,88,0.00,,,0.00,0,Wunderground v.1.15,2013-05-18 00:57:00,
2013-05-17 21:02:00,70.2,66.5,30.11,South,175,0.0,0.0,88,0.00,,,0.00,0,Wunderground v.1.15,2013-05-18 01:02:00,
2013-05-17 21:07:00,70.4,66.7,30.11,South,175,0.0,0.0,88,0.00,,,0.00,0,Wunderground v.1.15,2013-05-18 01:07:00,
2013-05-17 21:12:00,70.7,66.3,30.11,South,175,0.0,0.0,86,0.00,,,0.00,0,Wunderground v.1.15,2013-05-18 01:12:00,
2013-05-17 21:17:00,70.4,66.3,30.11,South,175,0.0,0.0,87,0.00,,,0.00,0,Wunderground v.1.15,2013-05-18 01:17:00,
2013-05-17 21:22:00,70.3,66.2,30.12,South,175,0.0,0.0,87,0.00,,,0.00,0,Wunderground v.1.15,2013-05-18 01:22:00,
2013-05-17 21:27:00,70.1,66.4,30.12,South,175,0.0,1.0,88,0.00,,,0.00,0,Wunderground v.1.15,2013-05-18 01:27:00,
2013-05-17 21:32:00,70.0,66.3,30.12,South,175,0.0,0.0,88,0.00,,,0.00,0,Wunderground v.1.15,2013-05-18 01:32:00,
2013-05-17 21:37:00,70.3,66.6,30.12,South,175,0.0,0.0,88,0.00,,,0.00,0,Wunderground v.1.15,2013-05-18 01:37:00,
2013-05-17 21:42:00,72.5,66.0,30.12,SE,128,1.0,3.0,80,0.00,,,0.00,0,Wunderground v.1.15,2013-05-18 01:42:00,
2013-05-17 21:47:00,74.4,66.0,30.13,ESE,116,3.0,5.0,75,0.00,,,0.00,0,Wunderground v.1.15,2013-05-18 01:47:00,
2013-05-17 21:52:00,75.1,65.5,30.13,ESE,113,2.0,4.0,72,0.00,,,0.00,0,Wunderground v.1.15,2013-05-18 01:52:00,
2013-05-17 21:57:00,75.3,64.8,30.13,SE,140,4.0,7.0,70,0.00,,,0.00,0,Wunderground v.1.15,2013-05-18 01:57:00,
2013-05-17 22:02:00,75.3,64.0,30.13,ESE,114,2.0,7.0,68,0.00,,,0.00,0,Wunderground v.1.15,2013-05-18 02:02:00,
2013-05-17 22:07:00,75.5,63.8,30.13,ESE,102,7.0,7.0,67,0.00,,,0.00,0,Wunderground v.1.15,2013-05-18 02:07:00,
2013-05-17 22:12:00,75.4,63.2,30.13,SE,125,5.0,5.0,66,0.00,,,0.00,0,Wunderground v.1.15,2013-05-18 02:12:00,
2013-05-17 22:17:00,75.2,63.1,30.14,SE,137,2.0,7.0,66,0.00,,,0.00,0,Wunderground v.1.15,2013-05-18 02:17:00,
2013-05-17 22:22:00,75.0,63.7,30.14,SE,126,3.0,3.0,68,0.00,,,0.00,0,Wunderground v.1.15,2013-05-18 02:22:00,
2013-05-17 22:27:00,74.8,63.5,30.14,SE,136,5.0,5.0,68,0.00,,,0.00,0,Wunderground v.1.15,2013-05-18 02:27:00,
2013-05-17 22:32:00,74.6,63.8,30.14,ESE,122,2.0,5.0,69,0.00,,,0.00,0,Wunderground v.1.15,2013-05-18 02:32:00,
2013-05-17 22:37:00,74.4,63.6,30.14,East,93,5.0,8.0,69,0.00,,,0.00,0,Wunderground v.1.15,2013-05-18 02:37:00,
2013-05-17 22:42:00,74.2,63.4,30.14,SE,124,4.0,6.0,69,0.00,,,0.00,0,Wunderground v.1.15,2013-05-18 02:42:00,
2013-05-17 22:47:00,74.0,61.9,30.14,SE,138,5.0,6.0,66,0.00,,,0.00,0,Wunderground v.1.15,2013-05-18 02:47:00,
2013-05-17 22:52:00,73.9,60.1,30.14,SE,140,4.0,7.0,62,0.00,,,0.00,0,Wunderground v.1.15,2013-05-18 02:52:00,
2013-05-17 22:57:00,73.8,58.6,30.14,SE,130,5.0,8.0,59,0.00,,,0.00,0,Wunderground v.1.15,2013-05-18 02:57:00,
2013-05-17 23:03:00,73.7,57.5,30.14,SE,144,2.0,8.0,57,0.00,,,0.00,0,Wunderground v.1.15,2013-05-18 03:03:00,
2013-05-17 23:08:00,73.5,55.8,30.15,ESE,117,4.0,9.0,54,0.00,,,0.00,0,Wunderground v.1.15,2013-05-18 03:08:00,
2013-05-17 23:13:00,73.5,54.8,30.15,SE,141,2.0,8.0,52,0.00,,,0.00,0,Wunderground v.1.15,2013-05-18 03:13:00,
2013-05-17 23:18:00,73.4,54.2,30.15,SE,124,4.0,8.0,51,0.00,,,0.00,0,Wunderground v.1.15,2013-05-18 03:18:00,
2013-05-17 23:23:00,73.3,54.1,30.15,ESE,120,4.0,4.0,51,0.00,,,0.00,0,Wunderground v.1.15,2013-05-18 03:23:00,
2013-05-17 23:28:00,73.1,53.4,30.16,SE,128,3.0,4.0,50,0.00,,,0.00,0,Wunderground v.1.15,2013-05-18 03:28:00,
2013-05-17 23:33:00,73.0,53.8,30.15,ESE,116,3.0,5.0,51,0.00,,,0.00,0,Wunderground v.1.15,2013-05-18 03:33:00,
2013-05-17 23:38:00,73.0,53.3,30.15,ENE,74,4.0,6.0,50,0.00,,,0.00,0,Wunderground v.1.15,2013-05-18 03:38:00,
2013-05-17 23:43:00,72.9,53.2,30.15,SE,132,1.0,4.0,50,0.00,,,0.00,0,Wunderground v.1.15,2013-05-18 03:43:00,
2013-05-17 23:48:00,72.6,53.4,30.16,SW,219,3.0,4.0,51,0.00,,,0.00,0,Wunderground v.1.15,2013-05-18 03:48:00,
2013-05-17 23:53:00,71.7,53.7,30.16,SW,219,0.0,2.0,53,0.00,,,0.00,0,Wunderground v.1.15,2013-05-18 03:53:00,
2013-05-17 23:58:00,72.1,53.5,30.16,ESE,113,2.0,4.0,52,0.00,,,0.00,0,Wunderground v.1.15,2013-05-18 03:58:00,